Time;durP1;ratioP1;P1;durP2;ratioP2;P2;SDS_P1;SDS_P2;PMS_P1;PMS_P2;Temp;Humidity;BMP_temperature;BMP_pressure;BME280_temperature;BME280_humidity;BME280_pressure;Samples;Min_cycle;Max_cycle;Signal;HPM_P1;HPM_P2
2023/06/13 00:00:13;;;;;;;12.63;9.45;;;;;;;20.72;100.00;99323.00;5001129;28;20040;-65
2023/06/13 00:02:40;;;;;;;14.15;9.80;;;;;;;20.63;100.00;99319.03;5000646;28;20046;-64
2023/06/13 00:05:11;;;;;;;13.10;10.25;;;;;;;20.55;100.00;99310.50;5001728;28;20417;-65
2023/06/13 00:07:37;;;;;;;12.70;9.07;;;;;;;20.60;100.00;99307.94;4988819;28;20046;-65
2023/06/13 00:10:06;;;;;;;9.82;8.45;;;;;;;20.65;100.00;99310.72;5001406;28;20040;-65
2023/06/13 00:12:32;;;;;;;14.23;10.43;;;;;;;20.64;100.00;99312.59;5001333;28;20168;-64
2023/06/13 00:15:01;;;;;;;13.23;9.68;;;;;;;20.70;100.00;99308.13;5001014;28;20038;-64
2023/06/13 00:17:28;;;;;;;11.90;9.68;;;;;;;20.69;100.00;99311.88;5001190;28;20049;-65
2023/06/13 00:19:55;;;;;;;11.38;8.65;;;;;;;20.58;100.00;99305.47;5001475;28;20030;-65
2023/06/13 00:22:21;;;;;;;11.82;8.95;;;;;;;20.67;100.00;99308.63;5000893;28;20042;-65
2023/06/13 00:24:47;;;;;;;12.85;9.27;;;;;;;20.76;100.00;99303.69;5000847;28;20155;-65
2023/06/13 00:27:13;;;;;;;12.93;9.88;;;;;;;20.83;100.00;99305.19;5000980;28;20054;-65
2023/06/13 00:29:38;;;;;;;11.52;8.35;;;;;;;20.94;100.00;99304.34;5000572;28;20052;-65
2023/06/13 00:32:04;;;;;;;12.65;9.57;;;;;;;21.01;100.00;99306.91;5000490;28;20045;-65
2023/06/13 00:34:29;;;;;;;12.30;9.70;;;;;;;21.02;100.00;99298.56;5000427;28;20046;-65
2023/06/13 00:36:55;;;;;;;10.70;8.82;;;;;;;21.04;100.00;99309.91;5000205;28;20044;-65
2023/06/13 00:39:21;;;;;;;12.43;9.60;;;;;;;21.00;100.00;99306.06;5000047;28;20042;-65
2023/06/13 00:41:47;;;;;;;10.27;8.95;;;;;;;20.92;100.00;99295.69;5000751;28;20034;-65
2023/06/13 00:44:12;;;;;;;11.50;9.10;;;;;;;20.88;100.00;99294.53;4998111;28;20042;-65
2023/06/13 00:46:39;;;;;;;14.38;9.48;;;;;;;20.68;100.00;99294.09;4996625;28;20038;-65
2023/06/13 00:49:06;;;;;;;14.13;9.10;;;;;;;20.77;100.00;99295.38;4997705;28;20039;-65
2023/06/13 00:51:35;;;;;;;14.05;9.45;;;;;;;20.55;100.00;99300.56;4999116;28;20469;-65
2023/06/13 00:54:01;;;;;;;12.07;8.63;;;;;;;20.49;100.00;99301.53;4997224;28;20298;-65
2023/06/13 00:56:28;;;;;;;14.80;9.48;;;;;;;20.53;100.00;99296.50;4996283;28;20106;-65
2023/06/13 00:58:55;;;;;;;12.93;9.07;;;;;;;20.48;100.00;99294.50;4996434;28;20027;-65
2023/06/13 01:01:22;;;;;;;14.77;10.05;;;;;;;20.39;100.00;99299.44;4995716;28;20116;-65
2023/06/13 01:03:48;;;;;;;13.20;9.65;;;;;;;20.32;100.00;99298.72;4993949;28;20066;-65
2023/06/13 01:06:14;;;;;;;11.43;9.63;;;;;;;20.26;100.00;99298.84;4995552;28;20034;-65
2023/06/13 01:08:40;;;;;;;13.90;9.68;;;;;;;20.09;100.00;99296.06;4995631;28;20244;-65
2023/06/13 01:11:18;;;;;;;16.40;9.80;;;;;;;19.81;100.00;99298.63;4995590;28;20267;-65
2023/06/13 01:13:54;;;;;;;14.35;10.07;;;;;;;19.50;100.00;99302.38;4993729;28;20336;-65
2023/06/13 01:16:33;;;;;;;15.90;10.77;;;;;;;19.22;100.00;99297.63;4992772;28;20034;-65
2023/06/13 01:19:01;;;;;;;20.08;11.32;;;;;;;19.25;100.00;99291.81;4997440;28;20195;-65
2023/06/13 01:21:28;;;;;;;15.15;10.82;;;;;;;19.36;100.00;99288.34;4995289;28;20030;-64
2023/06/13 01:24:08;;;;;;;14.60;11.38;;;;;;;19.10;100.00;99289.53;4990618;28;20351;-64
2023/06/13 01:26:56;;;;;;;14.70;11.65;;;;;;;19.01;100.00;99288.22;4995172;28;20030;-64
2023/06/13 01:29:22;;;;;;;15.25;10.45;;;;;;;19.01;100.00;99285.53;4991926;28;20038;-64
2023/06/13 01:31:54;;;;;;;15.02;10.52;;;;;;;19.06;100.00;99283.00;4995133;28;20319;-65
2023/06/13 01:34:20;;;;;;;17.15;12.18;;;;;;;18.99;100.00;99285.78;4995061;28;20041;-65
2023/06/13 01:36:47;;;;;;;14.55;11.25;;;;;;;19.12;100.00;99288.25;4995401;28;20055;-64
2023/06/13 01:39:13;;;;;;;18.38;11.20;;;;;;;19.07;100.00;99290.81;4995734;28;20627;-64
2023/06/13 01:41:38;;;;;;;16.20;11.30;;;;;;;18.89;100.00;99290.88;4995475;28;20049;-65
2023/06/13 01:44:05;;;;;;;15.45;11.35;;;;;;;18.90;100.00;99297.88;4995707;28;20208;-64
2023/06/13 01:46:42;;;;;;;13.45;10.18;;;;;;;18.92;100.00;99295.78;4994594;28;20042;-65
2023/06/13 01:49:16;;;;;;;17.10;12.23;;;;;;;18.93;100.00;99291.22;4995055;28;20038;-65
2023/06/13 01:51:47;;;;;;;19.42;11.52;;;;;;;18.98;100.00;99297.56;4995166;28;20042;-64
2023/06/13 01:54:17;;;;;;;16.80;11.73;;;;;;;19.01;100.00;99294.41;4993351;28;20038;-64
2023/06/13 01:56:43;;;;;;;15.13;11.32;;;;;;;18.87;100.00;99286.78;4993729;28;20038;-65
2023/06/13 01:59:11;;;;;;;14.68;11.07;;;;;;;18.90;100.00;99284.44;4995477;28;20041;-65
2023/06/13 02:01:39;;;;;;;17.63;11.13;;;;;;;18.87;100.00;99290.28;4996224;28;20034;-64
2023/06/13 02:04:05;;;;;;;15.70;10.95;;;;;;;18.93;100.00;99285.88;4994468;28;20050;-65
2023/06/13 02:06:32;;;;;;;17.48;12.52;;;;;;;18.94;100.00;99285.63;4994129;28;20046;-65
2023/06/13 02:08:58;;;;;;;17.40;11.18;;;;;;;19.09;100.00;99291.41;4996799;28;20041;-65
2023/06/13 02:11:23;;;;;;;17.73;11.13;;;;;;;19.17;100.00;99290.25;4997613;28;20386;-65
2023/06/13 02:13:49;;;;;;;14.30;11.45;;;;;;;19.23;100.00;99289.34;4994608;28;20038;-65
2023/06/13 02:16:17;;;;;;;25.55;11.95;;;;;;;19.34;100.00;99293.13;4996904;28;20569;-65
2023/06/13 02:18:43;;;;;;;16.45;12.40;;;;;;;19.37;100.00;99292.66;4994762;28;20066;-65
2023/06/13 02:21:08;;;;;;;17.95;12.13;;;;;;;19.13;100.00;99289.91;4994981;28;20231;-65
2023/06/13 02:23:34;;;;;;;16.75;11.85;;;;;;;19.03;100.00;99291.50;4994709;28;20038;-65
2023/06/13 02:25:59;;;;;;;18.33;11.77;;;;;;;18.87;100.00;99297.50;4993419;28;20026;-65
2023/06/13 02:28:25;;;;;;;17.38;12.13;;;;;;;18.85;100.00;99302.28;4994465;28;20223;-65
2023/06/13 02:30:50;;;;;;;15.50;10.88;;;;;;;18.89;100.00;99298.91;4976103;28;20100;-65
2023/06/13 02:33:16;;;;;;;14.93;10.98;;;;;;;18.98;100.00;99304.78;4994199;28;20030;-65
2023/06/13 02:35:42;;;;;;;12.68;10.30;;;;;;;18.94;100.00;99303.59;4994570;28;20338;-64
2023/06/13 02:38:08;;;;;;;14.23;10.40;;;;;;;19.06;100.00;99301.78;4993280;28;20077;-64
2023/06/13 02:40:35;;;;;;;14.57;9.57;;;;;;;19.06;100.00;99301.78;4994519;28;20038;-65
2023/06/13 02:43:01;;;;;;;14.48;10.52;;;;;;;19.07;100.00;99304.22;4994999;28;20263;-65
2023/06/13 02:45:26;;;;;;;14.70;9.85;;;;;;;19.14;100.00;99318.38;4995658;28;20042;-65
2023/06/13 02:47:53;;;;;;;12.43;8.25;;;;;;;19.10;100.00;99316.38;4997219;28;20081;-65
2023/06/13 02:50:18;;;;;;;11.75;8.30;;;;;;;18.99;100.00;99315.28;4994849;28;20113;-64
2023/06/13 02:52:43;;;;;;;12.48;8.23;;;;;;;18.74;100.00;99317.25;4994656;28;20437;-65
2023/06/13 02:55:10;;;;;;;13.10;8.70;;;;;;;18.77;100.00;99316.81;4994648;28;20034;-64
2023/06/13 02:57:39;;;;;;;10.60;8.20;;;;;;;18.70;100.00;99321.41;4994095;28;20045;-65
2023/06/13 03:00:09;;;;;;;11.77;7.82;;;;;;;18.59;100.00;99325.63;4993672;28;20101;-65
2023/06/13 03:02:38;;;;;;;10.20;7.82;;;;;;;18.69;100.00;99314.41;4997510;28;20208;-65
2023/06/13 03:05:11;;;;;;;14.35;7.90;;;;;;;18.65;100.00;99319.41;4998808;28;20402;-65
2023/06/13 03:07:42;;;;;;;12.02;7.75;;;;;;;18.59;100.00;99320.28;4998200;28;20030;-64
2023/06/13 03:10:08;;;;;;;9.05;8.02;;;;;;;18.30;100.00;99321.00;4998009;28;20393;-64
2023/06/13 03:12:34;;;;;;;13.60;7.93;;;;;;;18.22;100.00;99319.44;4997133;28;20335;-64
2023/06/13 03:15:00;;;;;;;15.80;8.40;;;;;;;18.11;100.00;99325.53;4998038;28;20034;-65
2023/06/13 03:17:25;;;;;;;11.50;7.78;;;;;;;18.34;100.00;99331.06;4997347;28;20809;-64
2023/06/13 03:19:51;;;;;;;13.45;8.38;;;;;;;18.55;100.00;99337.03;4996335;28;20042;-64
2023/06/13 03:22:16;;;;;;;12.15;8.85;;;;;;;18.67;100.00;99337.94;4997433;28;20129;-65
2023/06/13 03:24:43;;;;;;;10.85;7.53;;;;;;;18.45;100.00;99335.69;4997540;28;20049;-65
2023/06/13 03:27:09;;;;;;;9.52;6.70;;;;;;;18.42;100.00;99340.66;4997153;28;20041;-65
2023/06/13 03:29:35;;;;;;;10.88;7.22;;;;;;;18.30;100.00;99332.56;4997117;28;20728;-64
2023/06/13 03:32:00;;;;;;;11.10;7.88;;;;;;;18.02;100.00;99326.84;4996561;28;20351;-64
2023/06/13 03:34:28;;;;;;;10.43;8.27;;;;;;;18.09;100.00;99327.59;4997048;28;20480;-64
2023/06/13 03:36:54;;;;;;;10.43;7.18;;;;;;;17.97;100.00;99324.84;4996871;28;20041;-64
2023/06/13 03:39:19;;;;;;;10.55;7.45;;;;;;;18.04;100.00;99324.78;4996818;28;20107;-64
2023/06/13 03:41:45;;;;;;;11.43;6.97;;;;;;;17.93;100.00;99333.53;4996256;28;20235;-64
2023/06/13 03:44:10;;;;;;;17.45;7.70;;;;;;;18.02;100.00;99334.88;4996686;28;20073;-64
2023/06/13 03:46:36;;;;;;;8.85;7.00;;;;;;;17.92;100.00;99331.88;4996241;28;21051;-64
2023/06/13 03:49:02;;;;;;;8.88;6.95;;;;;;;17.97;100.00;99332.88;4997148;28;20035;-64
2023/06/13 03:51:28;;;;;;;12.93;7.63;;;;;;;18.30;100.00;99327.19;4996355;28;20596;-64
2023/06/13 03:53:53;;;;;;;14.43;7.68;;;;;;;18.30;100.00;99340.59;4996522;28;20046;-64
2023/06/13 03:56:18;;;;;;;12.70;8.02;;;;;;;18.29;100.00;99338.94;4995339;28;20038;-64
2023/06/13 03:58:44;;;;;;;12.55;7.75;;;;;;;18.23;100.00;99336.34;4996302;28;20046;-64
2023/06/13 04:01:11;;;;;;;11.88;7.18;;;;;;;18.23;100.00;99345.19;4996184;28;20034;-64
2023/06/13 04:03:39;;;;;;;10.43;8.15;;;;;;;18.23;100.00;99342.50;4996947;28;20034;-64
2023/06/13 04:06:08;;;;;;;9.50;6.72;;;;;;;18.24;100.00;99348.69;4993813;28;20227;-64
2023/06/13 04:08:36;;;;;;;8.73;7.07;;;;;;;18.19;100.00;99350.19;4997279;28;20050;-65
2023/06/13 04:11:02;;;;;;;12.90;8.05;;;;;;;18.37;100.00;99353.91;4997495;28;20041;-65
2023/06/13 04:13:27;;;;;;;11.32;7.97;;;;;;;18.70;100.00;99357.09;4996070;28;20030;-65
2023/06/13 04:15:53;;;;;;;8.15;6.35;;;;;;;18.64;100.00;99358.00;4997387;28;20038;-64
2023/06/13 04:18:18;;;;;;;11.07;7.38;;;;;;;18.61;100.00;99361.13;4997468;28;20035;-64
2023/06/13 04:20:44;;;;;;;12.88;6.78;;;;;;;18.48;100.00;99356.69;4997148;28;20331;-64
2023/06/13 04:23:10;;;;;;;11.93;6.90;;;;;;;18.58;100.00;99366.06;4996741;28;20038;-64
2023/06/13 04:25:35;;;;;;;10.82;6.90;;;;;;;18.67;100.00;99362.91;4996821;28;20034;-65
2023/06/13 04:28:02;;;;;;;9.40;6.95;;;;;;;18.61;100.00;99368.31;4996733;28;20040;-64
2023/06/13 04:30:28;;;;;;;11.73;6.72;;;;;;;18.38;100.00;99367.09;4996406;28;20053;-64
2023/06/13 04:32:57;;;;;;;9.68;6.85;;;;;;;18.43;100.00;99369.94;4996039;28;20043;-64
2023/06/13 04:35:23;;;;;;;10.63;7.15;;;;;;;18.70;100.00;99367.00;4993919;28;20358;-64
2023/06/13 04:37:49;;;;;;;11.63;7.65;;;;;;;18.71;100.00;99368.63;4997037;28;20050;-64
2023/06/13 04:40:16;;;;;;;9.57;6.97;;;;;;;18.90;100.00;99372.97;4995821;28;20029;-64
2023/06/13 04:42:47;;;;;;;13.63;8.10;;;;;;;18.96;100.00;99364.03;4996165;28;20069;-65
2023/06/13 04:45:13;;;;;;;11.40;7.32;;;;;;;18.95;100.00;99365.06;4999686;28;20101;-65
2023/06/13 04:47:39;;;;;;;8.82;7.38;;;;;;;18.98;100.00;99366.50;4997627;28;20173;-65
2023/06/13 04:50:06;;;;;;;12.10;7.75;;;;;;;18.95;100.00;99370.44;4998612;28;20053;-65
2023/06/13 04:52:33;;;;;;;10.35;7.35;;;;;;;18.97;100.00;99378.28;4997315;28;20091;-65
2023/06/13 04:55:00;;;;;;;9.43;7.32;;;;;;;19.20;100.00;99383.75;4996817;28;20042;-65
2023/06/13 04:57:27;;;;;;;10.80;7.90;;;;;;;19.13;100.00;99380.34;4996521;28;20346;-65
2023/06/13 04:59:52;;;;;;;11.88;7.93;;;;;;;19.33;100.00;99382.75;4996673;28;20121;-65
2023/06/13 05:02:17;;;;;;;11.48;8.07;;;;;;;19.46;100.00;99386.06;4994653;28;20046;-65
2023/06/13 05:04:44;;;;;;;8.90;6.93;;;;;;;19.40;100.00;99388.84;4995828;28;20383;-65
2023/06/13 05:07:14;;;;;;;10.68;8.82;;;;;;;19.54;100.00;99384.97;4995990;28;20327;-65
2023/06/13 05:09:41;;;;;;;12.07;7.82;;;;;;;19.48;100.00;99398.44;4996118;28;20046;-65
2023/06/13 05:12:07;;;;;;;13.10;7.20;;;;;;;19.56;100.00;99398.97;4995863;28;20422;-64
2023/06/13 05:14:32;;;;;;;11.27;7.43;;;;;;;19.37;100.00;99398.19;4995290;28;20519;-64
2023/06/13 05:17:05;;;;;;;10.38;8.07;;;;;;;19.38;100.00;99399.00;4997000;28;20321;-65
2023/06/13 05:19:31;;;;;;;9.10;7.25;;;;;;;19.37;100.00;99400.84;4998941;28;20041;-65
2023/06/13 05:21:56;;;;;;;9.43;7.10;;;;;;;19.37;100.00;99392.81;4997725;28;20121;-64
2023/06/13 05:24:22;;;;;;;8.68;6.15;;;;;;;19.38;100.00;99410.56;4993413;28;20038;-64
2023/06/13 05:26:47;;;;;;;10.13;6.68;;;;;;;19.48;100.00;99412.69;4994843;28;20046;-64
2023/06/13 05:29:13;;;;;;;8.95;6.32;;;;;;;19.52;100.00;99407.69;4996055;28;20038;-64
2023/06/13 05:31:38;;;;;;;7.47;5.68;;;;;;;19.42;100.00;99413.59;4999181;28;20205;-64
2023/06/13 05:34:04;;;;;;;13.70;7.47;;;;;;;19.54;100.00;99417.19;4999808;28;20038;-64
2023/06/13 05:36:29;;;;;;;8.43;5.45;;;;;;;19.48;100.00;99418.06;4999619;28;20026;-65
2023/06/13 05:38:55;;;;;;;9.40;5.40;;;;;;;19.31;100.00;99417.88;4999626;28;20034;-65
2023/06/13 05:41:22;;;;;;;7.38;5.07;;;;;;;19.22;100.00;99424.59;4999499;28;20030;-65
2023/06/13 05:43:47;;;;;;;8.07;5.53;;;;;;;19.06;100.00;99420.66;4998886;28;20370;-64
2023/06/13 05:46:13;;;;;;;7.05;4.78;;;;;;;19.08;100.00;99420.44;4998928;28;20042;-64
2023/06/13 05:48:39;;;;;;;9.52;5.78;;;;;;;18.97;100.00;99430.06;4998968;28;20054;-65
2023/06/13 05:51:05;;;;;;;7.63;4.93;;;;;;;18.88;100.00;99425.22;4998894;28;20104;-64
2023/06/13 05:53:31;;;;;;;7.25;5.50;;;;;;;18.95;100.00;99418.75;4998276;28;20215;-64
2023/06/13 05:55:56;;;;;;;6.53;5.63;;;;;;;19.07;100.00;99430.34;4998577;28;20456;-64
2023/06/13 05:58:21;;;;;;;7.70;5.55;;;;;;;19.09;100.00;99435.50;4997075;28;20046;-64
2023/06/13 06:00:47;;;;;;;7.85;6.03;;;;;;;19.22;100.00;99435.34;4998001;28;20101;-64
2023/06/13 06:03:14;;;;;;;10.70;6.95;;;;;;;19.30;100.00;99426.16;4998039;28;20052;-64
2023/06/13 06:05:39;;;;;;;6.82;6.03;;;;;;;19.24;100.00;99422.50;4997877;28;20050;-64
2023/06/13 06:08:05;;;;;;;12.52;6.93;;;;;;;19.38;100.00;99428.53;4998044;28;20066;-64
2023/06/13 06:10:30;;;;;;;8.85;6.35;;;;;;;19.55;100.00;99434.13;4998362;28;20057;-65
2023/06/13 06:12:56;;;;;;;11.65;6.68;;;;;;;19.46;100.00;99434.41;4998016;28;20045;-64
2023/06/13 06:15:21;;;;;;;8.15;6.22;;;;;;;19.42;100.00;99427.03;4998227;28;20850;-64
2023/06/13 06:17:47;;;;;;;8.68;6.50;;;;;;;19.63;100.00;99428.44;4997830;28;20278;-64
2023/06/13 06:20:12;;;;;;;8.05;6.47;;;;;;;19.75;100.00;99427.41;4998143;28;20417;-65
2023/06/13 06:22:38;;;;;;;8.40;6.05;;;;;;;19.65;100.00;99427.16;4996481;28;20030;-65
2023/06/13 06:25:03;;;;;;;9.10;6.47;;;;;;;19.69;100.00;99427.50;4994221;28;20083;-64
2023/06/13 06:27:29;;;;;;;8.15;6.03;;;;;;;19.95;100.00;99420.94;4993153;28;20050;-65
2023/06/13 06:29:54;;;;;;;7.15;6.38;;;;;;;20.07;100.00;99419.91;4994723;28;20026;-65
2023/06/13 06:32:20;;;;;;;9.27;6.50;;;;;;;20.03;100.00;99421.44;4993422;28;20036;-64
2023/06/13 06:34:45;;;;;;;7.45;6.65;;;;;;;20.08;100.00;99426.13;4993551;28;20536;-64
2023/06/13 06:37:13;;;;;;;8.75;6.43;;;;;;;20.36;100.00;99414.69;4992534;28;20046;-64
2023/06/13 06:39:38;;;;;;;6.55;5.32;;;;;;;20.29;100.00;99430.13;4995336;28;20034;-64
2023/06/13 06:42:04;;;;;;;5.75;5.25;;;;;;;20.43;100.00;99418.09;4993940;28;20070;-65
2023/06/13 06:44:29;;;;;;;6.05;5.45;;;;;;;20.38;100.00;99424.16;4993728;28;20049;-64
2023/06/13 06:46:55;;;;;;;8.25;5.35;;;;;;;20.42;100.00;99423.72;4994632;28;20727;-65
2023/06/13 06:49:20;;;;;;;6.05;5.30;;;;;;;20.48;100.00;99412.03;4994236;28;20270;-64
2023/06/13 06:51:46;;;;;;;7.50;6.47;;;;;;;20.50;100.00;99415.31;4993966;28;20080;-64
2023/06/13 06:54:11;;;;;;;6.82;5.78;;;;;;;20.81;100.00;99406.06;4993167;28;20072;-65
2023/06/13 06:56:36;;;;;;;10.88;5.97;;;;;;;20.80;100.00;99413.28;4994131;28;20034;-65
2023/06/13 06:59:03;;;;;;;7.20;6.13;;;;;;;20.97;100.00;99406.13;4994020;28;20124;-65
2023/06/13 07:01:28;;;;;;;7.88;5.70;;;;;;;21.06;100.00;99411.16;4992946;28;20328;-65
2023/06/13 07:03:54;;;;;;;7.15;5.57;;;;;;;21.48;100.00;99409.03;4994469;28;20105;-65
2023/06/13 07:06:19;;;;;;;7.95;6.20;;;;;;;22.08;100.00;99403.97;4993699;28;20260;-65
2023/06/13 07:08:45;;;;;;;7.20;5.15;;;;;;;22.66;100.00;99409.94;4993374;28;20030;-65
2023/06/13 07:11:10;;;;;;;8.23;5.68;;;;;;;22.60;100.00;99404.47;4992186;28;20061;-65
2023/06/13 07:13:36;;;;;;;6.43;5.40;;;;;;;22.55;100.00;99407.09;4993243;28;20228;-65
2023/06/13 07:16:01;;;;;;;7.47;5.80;;;;;;;22.29;100.00;99413.19;4992731;28;20367;-65
2023/06/13 07:18:29;;;;;;;5.70;5.15;;;;;;;21.95;100.00;99410.47;4992482;28;20224;-65
2023/06/13 07:20:55;;;;;;;5.65;4.43;;;;;;;21.66;100.00;99408.84;4992106;28;20053;-64
2023/06/13 07:23:20;;;;;;;7.80;5.53;;;;;;;21.83;100.00;99404.28;4992933;28;20681;-65
2023/06/13 07:25:46;;;;;;;5.90;5.07;;;;;;;21.80;100.00;99409.34;4991965;28;20035;-65
2023/06/13 07:28:11;;;;;;;6.60;5.15;;;;;;;21.90;100.00;99398.78;4993099;28;20236;-65
2023/06/13 07:30:37;;;;;;;5.78;5.22;;;;;;;21.93;100.00;99400.97;4991761;28;20213;-64
2023/06/13 07:33:02;;;;;;;6.38;5.00;;;;;;;21.94;100.00;99399.91;4992881;28;20567;-65
2023/06/13 07:35:29;;;;;;;6.13;5.50;;;;;;;21.87;100.00;99404.66;4992144;28;20041;-64
2023/06/13 07:37:54;;;;;;;5.25;4.40;;;;;;;21.62;100.00;99402.31;4993183;28;20052;-65
2023/06/13 07:40:24;;;;;;;5.13;4.32;;;;;;;21.38;100.00;99401.59;4991696;28;20034;-64
2023/06/13 07:42:50;;;;;;;6.82;5.07;;;;;;;21.42;100.00;99402.75;4992367;28;20034;-64
2023/06/13 07:45:15;;;;;;;5.45;4.82;;;;;;;21.55;100.00;99402.44;4993389;28;20329;-65
2023/06/13 07:47:41;;;;;;;5.88;4.53;;;;;;;21.53;100.00;99401.06;4994578;28;20346;-65
2023/06/13 07:50:07;;;;;;;4.72;4.28;;;;;;;21.68;100.00;99404.84;4997078;28;20079;-65
2023/06/13 07:52:32;;;;;;;6.78;5.03;;;;;;;21.66;100.00;99400.75;4996505;28;20320;-65
2023/06/13 07:54:58;;;;;;;5.35;4.50;;;;;;;22.06;100.00;99405.25;4997223;28;20030;-65
2023/06/13 07:57:24;;;;;;;6.10;4.90;;;;;;;22.45;99.96;99398.03;4996223;28;20343;-65
2023/06/13 07:59:50;;;;;;;5.72;4.38;;;;;;;22.76;97.54;99404.69;4997109;28;20046;-65
2023/06/13 08:02:15;;;;;;;5.20;4.38;;;;;;;23.02;96.85;99403.19;4995864;28;20451;-65
2023/06/13 08:04:40;;;;;;;6.05;4.78;;;;;;;23.48;96.40;99407.22;4996444;28;20042;-65
2023/06/13 08:07:06;;;;;;;5.00;4.32;;;;;;;23.75;94.00;99405.38;4996939;28;20113;-65
2023/06/13 08:09:31;;;;;;;5.13;4.13;;;;;;;23.91;92.95;99400.91;4996777;28;20042;-65
2023/06/13 08:11:58;;;;;;;4.03;3.63;;;;;;;23.81;85.64;99412.44;4997154;28;20240;-64
2023/06/13 08:14:24;;;;;;;4.38;3.85;;;;;;;23.60;87.79;99401.69;4995695;28;20076;-64
2023/06/13 08:16:49;;;;;;;5.40;3.92;;;;;;;23.59;91.85;99405.47;4997243;28;20050;-65
2023/06/13 08:19:15;;;;;;;4.43;3.90;;;;;;;23.22;90.01;99400.72;4996301;28;20322;-65
2023/06/13 08:21:41;;;;;;;5.18;4.50;;;;;;;23.04;90.53;99393.75;4996298;28;20054;-65
2023/06/13 08:24:06;;;;;;;4.13;3.67;;;;;;;22.91;91.09;99402.25;4997080;28;20109;-64
2023/06/13 08:26:33;;;;;;;4.85;4.07;;;;;;;23.08;88.64;99392.19;4995775;28;20037;-65
2023/06/13 08:29:02;;;;;;;10.13;4.60;;;;;;;23.56;85.57;99396.00;4996214;28;20026;-65
2023/06/13 08:31:29;;;;;;;4.80;4.07;;;;;;;23.64;89.25;99386.59;4995742;28;20072;-65
2023/06/13 08:33:55;;;;;;;4.72;4.05;;;;;;;23.71;86.03;99389.91;4997691;28;20081;-65
2023/06/13 08:36:21;;;;;;;5.22;4.13;;;;;;;23.17;84.47;99377.19;4995990;28;20104;-64
2023/06/13 08:38:47;;;;;;;4.15;3.72;;;;;;;23.61;84.32;99387.13;4995810;28;20216;-65
2023/06/13 08:41:14;;;;;;;5.80;4.10;;;;;;;23.99;88.96;99388.84;4995913;28;20034;-65
2023/06/13 08:43:40;;;;;;;7.68;4.60;;;;;;;23.99;85.22;99391.53;4996094;28;20280;-65
2023/06/13 08:46:07;;;;;;;5.43;4.45;;;;;;;24.04;84.10;99389.69;4996825;28;20081;-65
2023/06/13 08:48:32;;;;;;;5.57;4.68;;;;;;;24.63;84.09;99376.03;4995800;28;20041;-65
2023/06/13 08:51:04;;;;;;;4.95;3.70;;;;;;;24.84;79.56;99377.75;4996755;28;20033;-65
2023/06/13 08:53:31;;;;;;;6.43;4.07;;;;;;;24.05;83.90;99382.38;4995368;28;20053;-65
2023/06/13 08:56:03;;;;;;;5.80;4.50;;;;;;;24.24;84.90;99380.91;4996736;28;20040;-65
2023/06/13 08:58:35;;;;;;;7.65;4.40;;;;;;;24.69;83.55;99369.56;4992538;28;20600;-65
2023/06/13 09:01:02;;;;;;;5.90;4.32;;;;;;;24.80;81.94;99371.25;4994001;28;20041;-65
2023/06/13 09:03:29;;;;;;;5.65;4.47;;;;;;;24.70;88.45;99370.38;4995866;28;20041;-65
2023/06/13 09:05:56;;;;;;;6.20;4.72;;;;;;;24.24;86.78;99367.38;4995543;28;20049;-64
2023/06/13 09:08:24;;;;;;;6.10;5.20;;;;;;;24.44;82.63;99367.53;4996262;28;20038;-66
2023/06/13 09:10:50;;;;;;;6.35;4.50;;;;;;;24.84;83.22;99358.81;4994345;28;20049;-65
2023/06/13 09:13:17;;;;;;;6.05;4.43;;;;;;;24.93;79.88;99355.59;4994859;28;20064;-65
2023/06/13 09:15:44;;;;;;;5.13;4.63;;;;;;;24.90;83.39;99364.25;4995222;28;20034;-64
2023/06/13 09:18:14;;;;;;;6.22;4.43;;;;;;;24.83;83.03;99361.78;4994084;28;20031;-64
2023/06/13 09:20:40;;;;;;;4.63;4.22;;;;;;;25.18;77.98;99352.22;4994853;28;20158;-64
2023/06/13 09:23:06;;;;;;;8.07;4.45;;;;;;;25.39;81.36;99362.00;4993994;28;20066;-64
2023/06/13 09:25:35;;;;;;;6.10;4.53;;;;;;;25.46;75.81;99343.59;4995796;28;20057;-64
2023/06/13 09:28:47;;;;;;;5.07;4.53;;;;;;;25.16;79.65;99349.75;4995439;28;20041;-64
2023/06/13 09:31:13;;;;;;;6.10;3.97;;;;;;;24.93;81.45;99348.28;4991033;28;20121;-64
2023/06/13 09:33:39;;;;;;;6.03;4.30;;;;;;;24.52;79.94;99342.69;4995630;28;20050;-64
2023/06/13 09:36:06;;;;;;;4.90;4.40;;;;;;;24.49;79.84;99336.97;4995237;28;20317;-64
2023/06/13 09:38:36;;;;;;;5.88;4.82;;;;;;;24.76;81.19;99334.13;4977480;28;20049;-64
2023/06/13 09:41:04;;;;;;;5.32;4.60;;;;;;;24.60;80.74;99337.84;4993820;28;20030;-64
2023/06/13 09:43:30;;;;;;;6.43;4.93;;;;;;;24.33;82.99;99340.69;4994973;28;20097;-64
2023/06/13 09:45:56;;;;;;;5.75;4.63;;;;;;;24.22;82.02;99337.06;4994323;28;20132;-64
2023/06/13 09:48:22;;;;;;;6.25;4.78;;;;;;;24.44;82.47;99336.97;4993851;28;20355;-64
2023/06/13 09:50:50;;;;;;;5.70;5.15;;;;;;;24.60;80.68;99325.13;4993758;28;20034;-65
2023/06/13 09:53:16;;;;;;;6.68;4.68;;;;;;;24.69;78.14;99331.66;4994616;28;20042;-64
2023/06/13 09:55:41;;;;;;;5.90;4.55;;;;;;;24.36;77.51;99330.16;4992338;28;20057;-64
2023/06/13 09:58:07;;;;;;;4.93;4.38;;;;;;;24.28;80.72;99329.81;4993839;28;20240;-64
2023/06/13 10:00:33;;;;;;;5.28;4.32;;;;;;;24.18;78.42;99327.84;4992598;28;20093;-64
2023/06/13 10:02:59;;;;;;;5.35;4.47;;;;;;;24.36;78.40;99322.03;4993465;28;20050;-64
2023/06/13 10:05:25;;;;;;;7.47;4.40;;;;;;;24.54;77.91;99318.06;4992040;28;20339;-64
2023/06/13 10:07:52;;;;;;;4.65;4.18;;;;;;;24.66;77.67;99315.94;4993378;28;20084;-64
2023/06/13 10:10:17;;;;;;;4.53;4.13;;;;;;;24.54;76.35;99323.47;4991868;28;20351;-64
2023/06/13 10:12:55;;;;;;;4.75;4.30;;;;;;;24.42;72.43;99325.56;4993201;28;20046;-64
2023/06/13 10:15:35;;;;;;;4.35;3.95;;;;;;;24.53;76.54;99321.84;4992946;28;20069;-64
2023/06/13 10:18:14;;;;;;;6.03;3.95;;;;;;;24.65;74.85;99308.91;4993666;28;20034;-64
2023/06/13 10:20:44;;;;;;;6.05;3.97;;;;;;;24.57;76.82;99312.13;4994377;28;20298;-64
2023/06/13 10:23:13;;;;;;;4.55;3.90;;;;;;;24.65;71.89;99310.81;4993595;28;20374;-64
2023/06/13 10:25:38;;;;;;;4.63;4.13;;;;;;;24.64;69.54;99301.88;4993501;28;20038;-64
2023/06/13 10:28:21;;;;;;;4.70;4.20;;;;;;;24.81;68.83;99307.88;4993822;28;20292;-64
2023/06/13 10:31:37;;;;;;;5.90;4.03;;;;;;;24.64;68.03;99304.56;4993602;28;20049;-64
2023/06/13 10:34:15;;;;;;;6.60;4.32;;;;;;;24.64;75.07;99298.34;4952176;29;20062;-64
2023/06/13 10:37:10;;;;;;;5.90;4.10;;;;;;;24.61;69.06;99305.09;4952434;29;20758;-64
2023/06/13 10:40:00;;;;;;;4.93;4.38;;;;;;;24.68;68.30;99299.44;4985965;28;20052;-64
2023/06/13 10:42:37;;;;;;;5.10;4.47;;;;;;;24.66;70.68;99293.47;4993252;28;20084;-64
2023/06/13 10:45:11;;;;;;;4.78;4.18;;;;;;;24.77;66.46;99287.03;4993752;28;20045;-64
2023/06/13 10:47:37;;;;;;;6.25;4.53;;;;;;;24.86;70.85;99298.16;4994030;28;20034;-64
2023/06/13 10:50:03;;;;;;;4.95;4.43;;;;;;;24.74;70.00;99293.78;4992643;28;20041;-65
2023/06/13 10:52:29;;;;;;;6.57;4.38;;;;;;;24.69;70.58;99291.06;4993791;28;20035;-65
2023/06/13 10:54:58;;;;;;;6.60;4.53;;;;;;;24.82;77.80;99287.03;4994244;28;20030;-65
2023/06/13 10:57:46;;;;;;;4.80;4.20;;;;;;;24.77;74.47;99287.03;4992864;28;20105;-65
2023/06/13 11:00:24;;;;;;;7.15;4.50;;;;;;;24.70;73.33;99289.16;4992285;28;20038;-65
2023/06/13 11:03:09;;;;;;;6.50;4.07;;;;;;;24.66;70.54;99285.34;4993669;28;20022;-65
2023/06/13 11:05:48;;;;;;;5.35;3.92;;;;;;;24.63;72.19;99278.59;4992531;28;20308;-65
2023/06/13 11:08:14;;;;;;;7.18;4.57;;;;;;;24.64;70.84;99276.69;4994557;28;20513;-65
2023/06/13 11:10:42;;;;;;;5.10;4.20;;;;;;;24.59;71.46;99272.06;4993174;28;20030;-66
2023/06/13 11:13:22;;;;;;;5.07;4.13;;;;;;;24.73;72.55;99275.09;4993568;28;20046;-64
2023/06/13 11:15:52;;;;;;;6.65;4.88;;;;;;;24.85;71.51;99270.25;4993096;28;20094;-64
2023/06/13 11:18:20;;;;;;;4.88;4.30;;;;;;;24.62;71.43;99268.84;4994842;28;20046;-64
2023/06/13 11:20:57;;;;;;;5.13;4.22;;;;;;;24.63;70.10;99265.03;4993407;28;20035;-64
2023/06/13 11:23:42;;;;;;;4.63;3.97;;;;;;;24.91;73.89;99279.22;4996355;28;20112;-64